sensor_id;sensor_type;location;lat;lon;timestamp;P1;durP1;ratioP1;P2;durP2;ratioP2
8349;SDS011;60699;48.946;8.412;2023-02-13T00:02:17;11.02;;;6.50;;
8349;SDS011;60699;48.946;8.412;2023-02-13T00:04:44;7.93;;;5.85;;
8349;SDS011;60699;48.946;8.412;2023-02-13T00:07:11;7.55;;;5.78;;
8349;SDS011;60699;48.946;8.412;2023-02-13T00:09:38;7.35;;;5.10;;
8349;SDS011;60699;48.946;8.412;2023-02-13T00:12:07;7.40;;;5.78;;
8349;SDS011;60699;48.946;8.412;2023-02-13T00:14:35;8.57;;;5.57;;
8349;SDS011;60699;48.946;8.412;2023-02-13T00:17:02;7.45;;;5.53;;
8349;SDS011;60699;48.946;8.412;2023-02-13T00:19:29;8.30;;;6.03;;
8349;SDS011;60699;48.946;8.412;2023-02-13T00:21:57;11.82;;;7.65;;
8349;SDS011;60699;48.946;8.412;2023-02-13T00:24:24;9.23;;;7.03;;
8349;SDS011;60699;48.946;8.412;2023-02-13T00:26:51;14.27;;;9.20;;
8349;SDS011;60699;48.946;8.412;2023-02-13T00:29:19;12.35;;;7.20;;
8349;SDS011;60699;48.946;8.412;2023-02-13T00:31:46;7.25;;;6.55;;
8349;SDS011;60699;48.946;8.412;2023-02-13T00:34:13;10.63;;;6.90;;
8349;SDS011;60699;48.946;8.412;2023-02-13T00:36:40;11.90;;;8.43;;
8349;SDS011;60699;48.946;8.412;2023-02-13T00:39:07;12.85;;;8.45;;
8349;SDS011;60699;48.946;8.412;2023-02-13T00:41:36;14.80;;;10.20;;
8349;SDS011;60699;48.946;8.412;2023-02-13T00:44:03;14.60;;;8.38;;
8349;SDS011;60699;48.946;8.412;2023-02-13T00:46:32;14.32;;;9.98;;
8349;SDS011;60699;48.946;8.412;2023-02-13T00:48:59;14.63;;;8.85;;
8349;SDS011;60699;48.946;8.412;2023-02-13T00:51:26;13.50;;;9.45;;
8349;SDS011;60699;48.946;8.412;2023-02-13T00:53:53;17.92;;;8.77;;
8349;SDS011;60699;48.946;8.412;2023-02-13T00:56:20;9.85;;;7.38;;
8349;SDS011;60699;48.946;8.412;2023-02-13T00:58:47;12.77;;;10.07;;
8349;SDS011;60699;48.946;8.412;2023-02-13T01:01:14;12.13;;;8.95;;
8349;SDS011;60699;48.946;8.412;2023-02-13T01:03:43;13.95;;;8.75;;
8349;SDS011;60699;48.946;8.412;2023-02-13T01:06:10;16.25;;;9.45;;
8349;SDS011;60699;48.946;8.412;2023-02-13T01:08:37;12.57;;;8.63;;
8349;SDS011;60699;48.946;8.412;2023-02-13T01:11:04;16.08;;;11.05;;
8349;SDS011;60699;48.946;8.412;2023-02-13T01:13:32;12.27;;;8.90;;
8349;SDS011;60699;48.946;8.412;2023-02-13T01:15:59;14.43;;;9.10;;
8349;SDS011;60699;48.946;8.412;2023-02-13T01:18:26;17.30;;;9.60;;
8349;SDS011;60699;48.946;8.412;2023-02-13T01:20:59;14.07;;;9.75;;
8349;SDS011;60699;48.946;8.412;2023-02-13T01:23:28;18.30;;;10.77;;
8349;SDS011;60699;48.946;8.412;2023-02-13T01:25:56;16.92;;;10.60;;
8349;SDS011;60699;48.946;8.412;2023-02-13T01:28:23;15.55;;;9.52;;
8349;SDS011;60699;48.946;8.412;2023-02-13T01:30:53;13.48;;;10.43;;
8349;SDS011;60699;48.946;8.412;2023-02-13T01:33:20;16.70;;;9.98;;
8349;SDS011;60699;48.946;8.412;2023-02-13T01:35:47;13.77;;;9.60;;
8349;SDS011;60699;48.946;8.412;2023-02-13T01:38:15;12.43;;;10.20;;
8349;SDS011;60699;48.946;8.412;2023-02-13T01:40:43;18.15;;;12.32;;
8349;SDS011;60699;48.946;8.412;2023-02-13T01:43:11;18.00;;;11.15;;
8349;SDS011;60699;48.946;8.412;2023-02-13T01:45:38;14.48;;;10.25;;
8349;SDS011;60699;48.946;8.412;2023-02-13T01:48:06;20.70;;;11.25;;
8349;SDS011;60699;48.946;8.412;2023-02-13T01:50:34;19.20;;;11.60;;
8349;SDS011;60699;48.946;8.412;2023-02-13T01:53:03;14.40;;;10.52;;
8349;SDS011;60699;48.946;8.412;2023-02-13T01:55:33;15.98;;;11.55;;
8349;SDS011;60699;48.946;8.412;2023-02-13T01:58:01;16.83;;;10.95;;
8349;SDS011;60699;48.946;8.412;2023-02-13T02:00:30;14.15;;;9.07;;
8349;SDS011;60699;48.946;8.412;2023-02-13T02:02:59;15.73;;;10.50;;
8349;SDS011;60699;48.946;8.412;2023-02-13T02:05:27;16.02;;;10.25;;
8349;SDS011;60699;48.946;8.412;2023-02-13T02:07:55;13.63;;;9.88;;
8349;SDS011;60699;48.946;8.412;2023-02-13T02:10:23;15.38;;;9.25;;
8349;SDS011;60699;48.946;8.412;2023-02-13T02:12:52;15.27;;;9.93;;
8349;SDS011;60699;48.946;8.412;2023-02-13T02:15:21;14.05;;;10.20;;
8349;SDS011;60699;48.946;8.412;2023-02-13T02:17:48;17.13;;;9.82;;
8349;SDS011;60699;48.946;8.412;2023-02-13T02:20:19;14.85;;;9.10;;
8349;SDS011;60699;48.946;8.412;2023-02-13T02:22:59;12.57;;;9.38;;
8349;SDS011;60699;48.946;8.412;2023-02-13T02:25:40;17.38;;;10.23;;
8349;SDS011;60699;48.946;8.412;2023-02-13T02:28:19;12.10;;;9.52;;
8349;SDS011;60699;48.946;8.412;2023-02-13T02:30:55;11.88;;;8.90;;
8349;SDS011;60699;48.946;8.412;2023-02-13T02:33:29;15.30;;;11.48;;
8349;SDS011;60699;48.946;8.412;2023-02-13T02:35:59;19.00;;;11.27;;
8349;SDS011;60699;48.946;8.412;2023-02-13T02:38:33;14.43;;;10.77;;
8349;SDS011;60699;48.946;8.412;2023-02-13T02:41:06;18.88;;;10.98;;
8349;SDS011;60699;48.946;8.412;2023-02-13T02:43:39;14.82;;;8.27;;
8349;SDS011;60699;48.946;8.412;2023-02-13T02:46:10;13.15;;;8.90;;
8349;SDS011;60699;48.946;8.412;2023-02-13T02:48:42;8.93;;;7.22;;
8349;SDS011;60699;48.946;8.412;2023-02-13T02:51:29;8.32;;;7.20;;
8349;SDS011;60699;48.946;8.412;2023-02-13T02:54:02;14.32;;;6.47;;
8349;SDS011;60699;48.946;8.412;2023-02-13T02:56:53;11.02;;;7.18;;
8349;SDS011;60699;48.946;8.412;2023-02-13T02:59:22;7.30;;;6.32;;
8349;SDS011;60699;48.946;8.412;2023-02-13T03:02:08;9.93;;;6.65;;
8349;SDS011;60699;48.946;8.412;2023-02-13T03:04:55;9.63;;;5.47;;
8349;SDS011;60699;48.946;8.412;2023-02-13T03:07:40;6.63;;;5.60;;
8349;SDS011;60699;48.946;8.412;2023-02-13T03:10:08;13.00;;;6.18;;
8349;SDS011;60699;48.946;8.412;2023-02-13T03:12:53;6.68;;;5.97;;
8349;SDS011;60699;48.946;8.412;2023-02-13T03:15:39;16.27;;;7.10;;
8349;SDS011;60699;48.946;8.412;2023-02-13T03:18:20;9.90;;;5.90;;
8349;SDS011;60699;48.946;8.412;2023-02-13T03:21:08;9.95;;;5.97;;
8349;SDS011;60699;48.946;8.412;2023-02-13T03:24:00;9.52;;;6.60;;
8349;SDS011;60699;48.946;8.412;2023-02-13T03:26:32;8.05;;;5.93;;
8349;SDS011;60699;48.946;8.412;2023-02-13T03:29:17;8.02;;;5.68;;
8349;SDS011;60699;48.946;8.412;2023-02-13T03:32:05;7.05;;;6.35;;
8349;SDS011;60699;48.946;8.412;2023-02-13T03:34:34;8.77;;;6.22;;
8349;SDS011;60699;48.946;8.412;2023-02-13T03:37:18;8.32;;;6.38;;
8349;SDS011;60699;48.946;8.412;2023-02-13T03:40:08;9.07;;;5.55;;
8349;SDS011;60699;48.946;8.412;2023-02-13T03:42:39;9.25;;;6.03;;
8349;SDS011;60699;48.946;8.412;2023-02-13T03:45:07;10.85;;;5.63;;
8349;SDS011;60699;48.946;8.412;2023-02-13T03:47:55;12.82;;;5.95;;
8349;SDS011;60699;48.946;8.412;2023-02-13T03:50:23;7.70;;;5.38;;
8349;SDS011;60699;48.946;8.412;2023-02-13T03:52:52;9.25;;;5.40;;
8349;SDS011;60699;48.946;8.412;2023-02-13T03:55:21;7.38;;;5.97;;
8349;SDS011;60699;48.946;8.412;2023-02-13T03:58:08;13.10;;;5.93;;
8349;SDS011;60699;48.946;8.412;2023-02-13T04:00:56;10.88;;;6.00;;
8349;SDS011;60699;48.946;8.412;2023-02-13T04:03:23;9.63;;;6.57;;
8349;SDS011;60699;48.946;8.412;2023-02-13T04:05:53;8.82;;;6.90;;
8349;SDS011;60699;48.946;8.412;2023-02-13T04:08:22;10.60;;;6.82;;
8349;SDS011;60699;48.946;8.412;2023-02-13T04:10:49;10.02;;;6.53;;
8349;SDS011;60699;48.946;8.412;2023-02-13T04:13:19;8.43;;;6.80;;
8349;SDS011;60699;48.946;8.412;2023-02-13T04:15:49;11.35;;;7.07;;
8349;SDS011;60699;48.946;8.412;2023-02-13T04:18:19;11.95;;;6.97;;
8349;SDS011;60699;48.946;8.412;2023-02-13T04:20:47;8.98;;;6.07;;
8349;SDS011;60699;48.946;8.412;2023-02-13T04:23:14;11.45;;;6.43;;
8349;SDS011;60699;48.946;8.412;2023-02-13T04:25:43;11.98;;;6.88;;
8349;SDS011;60699;48.946;8.412;2023-02-13T04:28:11;6.30;;;5.15;;
8349;SDS011;60699;48.946;8.412;2023-02-13T04:30:38;7.30;;;6.63;;
8349;SDS011;60699;48.946;8.412;2023-02-13T04:33:05;10.93;;;5.78;;
8349;SDS011;60699;48.946;8.412;2023-02-13T04:35:32;8.18;;;6.35;;
8349;SDS011;60699;48.946;8.412;2023-02-13T04:37:59;6.95;;;5.50;;
8349;SDS011;60699;48.946;8.412;2023-02-13T04:40:26;7.50;;;5.75;;
8349;SDS011;60699;48.946;8.412;2023-02-13T04:42:55;8.70;;;4.68;;
8349;SDS011;60699;48.946;8.412;2023-02-13T04:45:22;10.88;;;7.40;;
8349;SDS011;60699;48.946;8.412;2023-02-13T04:47:49;8.65;;;6.45;;
8349;SDS011;60699;48.946;8.412;2023-02-13T04:50:17;9.57;;;5.65;;
8349;SDS011;60699;48.946;8.412;2023-02-13T04:52:44;11.30;;;7.57;;
8349;SDS011;60699;48.946;8.412;2023-02-13T04:55:11;13.20;;;7.00;;
8349;SDS011;60699;48.946;8.412;2023-02-13T04:57:38;10.00;;;6.82;;
8349;SDS011;60699;48.946;8.412;2023-02-13T05:00:08;9.75;;;8.02;;
8349;SDS011;60699;48.946;8.412;2023-02-13T05:02:35;10.90;;;7.22;;
8349;SDS011;60699;48.946;8.412;2023-02-13T05:05:02;12.30;;;7.00;;
8349;SDS011;60699;48.946;8.412;2023-02-13T05:07:29;8.38;;;6.20;;
8349;SDS011;60699;48.946;8.412;2023-02-13T05:09:56;11.55;;;7.50;;
8349;SDS011;60699;48.946;8.412;2023-02-13T05:12:23;10.25;;;7.50;;
8349;SDS011;60699;48.946;8.412;2023-02-13T05:14:50;10.25;;;6.35;;
8349;SDS011;60699;48.946;8.412;2023-02-13T05:17:19;7.72;;;5.88;;
8349;SDS011;60699;48.946;8.412;2023-02-13T05:19:46;12.43;;;8.43;;
8349;SDS011;60699;48.946;8.412;2023-02-13T05:22:13;8.60;;;7.68;;
8349;SDS011;60699;48.946;8.412;2023-02-13T05:24:57;10.23;;;7.60;;
8349;SDS011;60699;48.946;8.412;2023-02-13T05:27:24;10.15;;;6.95;;
8349;SDS011;60699;48.946;8.412;2023-02-13T05:29:51;11.55;;;7.25;;
8349;SDS011;60699;48.946;8.412;2023-02-13T05:32:19;9.60;;;6.75;;
8349;SDS011;60699;48.946;8.412;2023-02-13T05:34:46;10.82;;;7.30;;
8349;SDS011;60699;48.946;8.412;2023-02-13T05:37:13;9.40;;;6.57;;
8349;SDS011;60699;48.946;8.412;2023-02-13T05:39:40;6.60;;;6.00;;
8349;SDS011;60699;48.946;8.412;2023-02-13T05:42:07;9.43;;;6.53;;
8349;SDS011;60699;48.946;8.412;2023-02-13T05:44:34;10.13;;;7.20;;
8349;SDS011;60699;48.946;8.412;2023-02-13T05:47:01;10.50;;;7.30;;
8349;SDS011;60699;48.946;8.412;2023-02-13T05:49:30;9.57;;;6.93;;
8349;SDS011;60699;48.946;8.412;2023-02-13T05:51:57;14.82;;;9.57;;
8349;SDS011;60699;48.946;8.412;2023-02-13T05:54:24;18.20;;;9.70;;
8349;SDS011;60699;48.946;8.412;2023-02-13T05:56:51;15.82;;;9.48;;
8349;SDS011;60699;48.946;8.412;2023-02-13T05:59:18;13.65;;;7.75;;
8349;SDS011;60699;48.946;8.412;2023-02-13T06:01:45;16.52;;;9.35;;
8349;SDS011;60699;48.946;8.412;2023-02-13T06:04:12;14.02;;;9.27;;
8349;SDS011;60699;48.946;8.412;2023-02-13T06:06:41;16.48;;;8.82;;
8349;SDS011;60699;48.946;8.412;2023-02-13T06:09:09;14.13;;;8.70;;
8349;SDS011;60699;48.946;8.412;2023-02-13T06:11:36;10.80;;;8.18;;
8349;SDS011;60699;48.946;8.412;2023-02-13T06:14:03;10.15;;;6.55;;
8349;SDS011;60699;48.946;8.412;2023-02-13T06:16:30;11.30;;;7.35;;
8349;SDS011;60699;48.946;8.412;2023-02-13T06:18:58;11.57;;;7.45;;
8349;SDS011;60699;48.946;8.412;2023-02-13T06:21:25;13.27;;;7.20;;
8349;SDS011;60699;48.946;8.412;2023-02-13T06:23:54;8.10;;;6.20;;
8349;SDS011;60699;48.946;8.412;2023-02-13T06:26:21;9.00;;;7.15;;
8349;SDS011;60699;48.946;8.412;2023-02-13T06:28:48;11.48;;;6.75;;
8349;SDS011;60699;48.946;8.412;2023-02-13T06:31:15;9.65;;;6.65;;
8349;SDS011;60699;48.946;8.412;2023-02-13T06:33:42;10.50;;;7.05;;
8349;SDS011;60699;48.946;8.412;2023-02-13T06:36:09;14.35;;;8.23;;
8349;SDS011;60699;48.946;8.412;2023-02-13T06:38:36;12.30;;;7.80;;
8349;SDS011;60699;48.946;8.412;2023-02-13T06:41:05;10.93;;;7.10;;
8349;SDS011;60699;48.946;8.412;2023-02-13T06:43:32;11.68;;;7.22;;
8349;SDS011;60699;48.946;8.412;2023-02-13T06:45:59;9.48;;;7.43;;
8349;SDS011;60699;48.946;8.412;2023-02-13T06:48:26;13.98;;;8.30;;
8349;SDS011;60699;48.946;8.412;2023-02-13T06:50:53;12.43;;;9.65;;
8349;SDS011;60699;48.946;8.412;2023-02-13T06:53:20;13.45;;;8.95;;
8349;SDS011;60699;48.946;8.412;2023-02-13T06:55:49;12.52;;;9.10;;
8349;SDS011;60699;48.946;8.412;2023-02-13T06:58:18;23.77;;;11.38;;
8349;SDS011;60699;48.946;8.412;2023-02-13T07:00:45;15.88;;;10.65;;
8349;SDS011;60699;48.946;8.412;2023-02-13T07:03:12;13.43;;;10.95;;
8349;SDS011;60699;48.946;8.412;2023-02-13T07:05:39;15.27;;;10.90;;
8349;SDS011;60699;48.946;8.412;2023-02-13T07:08:07;13.52;;;9.98;;
8349;SDS011;60699;48.946;8.412;2023-02-13T07:10:35;16.70;;;10.80;;
8349;SDS011;60699;48.946;8.412;2023-02-13T07:13:02;15.23;;;9.68;;
8349;SDS011;60699;48.946;8.412;2023-02-13T07:15:31;18.20;;;10.15;;
8349;SDS011;60699;48.946;8.412;2023-02-13T07:17:58;12.80;;;9.77;;
8349;SDS011;60699;48.946;8.412;2023-02-13T07:20:25;14.20;;;7.75;;
8349;SDS011;60699;48.946;8.412;2023-02-13T07:22:52;13.68;;;8.60;;
8349;SDS011;60699;48.946;8.412;2023-02-13T07:25:23;11.48;;;9.30;;
8349;SDS011;60699;48.946;8.412;2023-02-13T07:27:50;12.82;;;9.27;;
8349;SDS011;60699;48.946;8.412;2023-02-13T07:30:17;12.75;;;8.80;;
8349;SDS011;60699;48.946;8.412;2023-02-13T07:32:46;8.60;;;6.50;;
8349;SDS011;60699;48.946;8.412;2023-02-13T07:35:13;14.98;;;9.55;;
8349;SDS011;60699;48.946;8.412;2023-02-13T07:37:40;10.20;;;7.03;;
8349;SDS011;60699;48.946;8.412;2023-02-13T07:40:07;11.88;;;7.43;;
8349;SDS011;60699;48.946;8.412;2023-02-13T07:42:35;9.55;;;8.40;;
8349;SDS011;60699;48.946;8.412;2023-02-13T07:45:02;10.30;;;8.00;;
8349;SDS011;60699;48.946;8.412;2023-02-13T07:47:32;8.45;;;6.05;;
8349;SDS011;60699;48.946;8.412;2023-02-13T07:50:00;11.35;;;6.03;;
8349;SDS011;60699;48.946;8.412;2023-02-13T07:52:29;6.43;;;5.20;;
8349;SDS011;60699;48.946;8.412;2023-02-13T07:54:57;10.90;;;7.15;;
8349;SDS011;60699;48.946;8.412;2023-02-13T07:57:24;10.95;;;7.72;;
8349;SDS011;60699;48.946;8.412;2023-02-13T07:59:51;11.25;;;8.68;;
8349;SDS011;60699;48.946;8.412;2023-02-13T08:02:18;10.80;;;8.48;;
8349;SDS011;60699;48.946;8.412;2023-02-13T08:04:45;14.48;;;8.73;;
8349;SDS011;60699;48.946;8.412;2023-02-13T08:07:14;13.00;;;9.75;;
8349;SDS011;60699;48.946;8.412;2023-02-13T08:09:43;18.60;;;11.18;;
8349;SDS011;60699;48.946;8.412;2023-02-13T08:12:27;13.10;;;9.30;;
8349;SDS011;60699;48.946;8.412;2023-02-13T08:14:54;12.85;;;8.85;;
8349;SDS011;60699;48.946;8.412;2023-02-13T08:17:21;9.93;;;8.60;;
8349;SDS011;60699;48.946;8.412;2023-02-13T08:19:48;11.27;;;8.82;;
8349;SDS011;60699;48.946;8.412;2023-02-13T08:22:17;12.35;;;8.57;;
8349;SDS011;60699;48.946;8.412;2023-02-13T08:24:44;17.58;;;9.63;;
8349;SDS011;60699;48.946;8.412;2023-02-13T08:27:11;16.15;;;8.90;;
8349;SDS011;60699;48.946;8.412;2023-02-13T08:29:38;14.10;;;8.45;;
8349;SDS011;60699;48.946;8.412;2023-02-13T08:32:05;17.20;;;10.05;;
8349;SDS011;60699;48.946;8.412;2023-02-13T08:34:32;11.95;;;9.10;;
8349;SDS011;60699;48.946;8.412;2023-02-13T08:37:00;15.13;;;9.55;;
8349;SDS011;60699;48.946;8.412;2023-02-13T08:39:28;18.45;;;11.25;;
8349;SDS011;60699;48.946;8.412;2023-02-13T08:41:55;15.10;;;10.05;;
8349;SDS011;60699;48.946;8.412;2023-02-13T08:44:22;17.40;;;11.23;;
8349;SDS011;60699;48.946;8.412;2023-02-13T08:46:49;18.10;;;11.63;;
8349;SDS011;60699;48.946;8.412;2023-02-13T08:49:16;14.32;;;9.60;;
8349;SDS011;60699;48.946;8.412;2023-02-13T08:51:43;13.40;;;10.00;;
8349;SDS011;60699;48.946;8.412;2023-02-13T08:54:10;17.70;;;10.93;;
8349;SDS011;60699;48.946;8.412;2023-02-13T08:56:38;20.35;;;10.82;;
8349;SDS011;60699;48.946;8.412;2023-02-13T08:59:05;19.70;;;11.10;;
8349;SDS011;60699;48.946;8.412;2023-02-13T09:01:32;18.10;;;11.40;;
8349;SDS011;60699;48.946;8.412;2023-02-13T09:03:59;21.90;;;11.73;;
8349;SDS011;60699;48.946;8.412;2023-02-13T09:06:26;17.98;;;11.20;;
8349;SDS011;60699;48.946;8.412;2023-02-13T09:08:53;16.67;;;11.60;;
8349;SDS011;60699;48.946;8.412;2023-02-13T09:11:21;29.58;;;10.30;;
8349;SDS011;60699;48.946;8.412;2023-02-13T09:13:51;24.10;;;12.82;;
8349;SDS011;60699;48.946;8.412;2023-02-13T09:16:18;22.15;;;13.88;;
8349;SDS011;60699;48.946;8.412;2023-02-13T09:18:45;25.00;;;13.25;;
8349;SDS011;60699;48.946;8.412;2023-02-13T09:21:12;21.60;;;13.18;;
8349;SDS011;60699;48.946;8.412;2023-02-13T09:23:40;19.50;;;12.63;;
8349;SDS011;60699;48.946;8.412;2023-02-13T09:26:07;18.17;;;12.10;;
8349;SDS011;60699;48.946;8.412;2023-02-13T09:28:35;27.92;;;16.00;;
8349;SDS011;60699;48.946;8.412;2023-02-13T09:31:05;25.38;;;14.07;;
8349;SDS011;60699;48.946;8.412;2023-02-13T09:33:32;26.45;;;12.40;;
8349;SDS011;60699;48.946;8.412;2023-02-13T09:36:02;23.75;;;14.45;;
8349;SDS011;60699;48.946;8.412;2023-02-13T09:38:29;25.92;;;14.15;;
8349;SDS011;60699;48.946;8.412;2023-02-13T09:40:57;29.20;;;15.38;;
8349;SDS011;60699;48.946;8.412;2023-02-13T09:43:26;35.78;;;16.25;;
8349;SDS011;60699;48.946;8.412;2023-02-13T09:45:55;24.58;;;14.82;;
8349;SDS011;60699;48.946;8.412;2023-02-13T09:48:27;20.30;;;13.70;;
8349;SDS011;60699;48.946;8.412;2023-02-13T09:50:54;24.48;;;13.82;;
8349;SDS011;60699;48.946;8.412;2023-02-13T09:53:22;24.55;;;13.20;;
8349;SDS011;60699;48.946;8.412;2023-02-13T09:55:52;27.02;;;13.13;;
8349;SDS011;60699;48.946;8.412;2023-02-13T09:58:21;23.98;;;14.38;;
8349;SDS011;60699;48.946;8.412;2023-02-13T10:00:52;28.60;;;15.40;;
8349;SDS011;60699;48.946;8.412;2023-02-13T10:03:26;26.58;;;14.15;;
8349;SDS011;60699;48.946;8.412;2023-02-13T10:06:01;26.50;;;14.70;;
8349;SDS011;60699;48.946;8.412;2023-02-13T10:08:32;28.00;;;14.13;;
8349;SDS011;60699;48.946;8.412;2023-02-13T10:11:02;29.98;;;15.95;;
8349;SDS011;60699;48.946;8.412;2023-02-13T10:16:21;35.80;;;16.98;;
8349;SDS011;60699;48.946;8.412;2023-02-13T10:18:49;27.15;;;14.90;;
8349;SDS011;60699;48.946;8.412;2023-02-13T10:21:20;28.35;;;13.25;;
8349;SDS011;60699;48.946;8.412;2023-02-13T10:23:49;31.77;;;16.35;;
8349;SDS011;60699;48.946;8.412;2023-02-13T10:26:17;36.42;;;15.60;;
8349;SDS011;60699;48.946;8.412;2023-02-13T10:28:46;31.48;;;15.52;;
8349;SDS011;60699;48.946;8.412;2023-02-13T10:31:35;31.35;;;15.52;;
8349;SDS011;60699;48.946;8.412;2023-02-13T10:34:04;29.30;;;15.05;;
8349;SDS011;60699;48.946;8.412;2023-02-13T10:36:34;34.97;;;14.23;;
8349;SDS011;60699;48.946;8.412;2023-02-13T10:39:12;27.00;;;13.88;;
8349;SDS011;60699;48.946;8.412;2023-02-13T10:41:41;28.58;;;16.40;;
8349;SDS011;60699;48.946;8.412;2023-02-13T10:44:14;24.50;;;12.75;;
8349;SDS011;60699;48.946;8.412;2023-02-13T10:46:46;29.73;;;14.70;;
8349;SDS011;60699;48.946;8.412;2023-02-13T10:52:02;31.45;;;14.93;;
8349;SDS011;60699;48.946;8.412;2023-02-13T10:54:36;26.48;;;15.27;;
8349;SDS011;60699;48.946;8.412;2023-02-13T10:57:12;26.02;;;13.23;;
8349;SDS011;60699;48.946;8.412;2023-02-13T10:59:46;36.58;;;15.95;;
8349;SDS011;60699;48.946;8.412;2023-02-13T11:02:20;33.60;;;16.67;;
8349;SDS011;60699;48.946;8.412;2023-02-13T11:04:48;28.58;;;13.68;;
8349;SDS011;60699;48.946;8.412;2023-02-13T11:07:18;27.55;;;14.38;;
8349;SDS011;60699;48.946;8.412;2023-02-13T11:09:46;30.80;;;14.60;;
8349;SDS011;60699;48.946;8.412;2023-02-13T11:12:25;38.83;;;18.30;;
8349;SDS011;60699;48.946;8.412;2023-02-13T11:14:54;26.83;;;15.40;;
8349;SDS011;60699;48.946;8.412;2023-02-13T11:17:22;31.05;;;16.40;;
8349;SDS011;60699;48.946;8.412;2023-02-13T11:19:50;26.67;;;14.88;;
8349;SDS011;60699;48.946;8.412;2023-02-13T11:22:25;29.27;;;16.90;;
8349;SDS011;60699;48.946;8.412;2023-02-13T11:24:54;35.70;;;16.30;;
8349;SDS011;60699;48.946;8.412;2023-02-13T11:27:22;27.58;;;13.73;;
8349;SDS011;60699;48.946;8.412;2023-02-13T11:29:51;30.17;;;15.80;;
8349;SDS011;60699;48.946;8.412;2023-02-13T11:32:20;28.23;;;17.27;;
8349;SDS011;60699;48.946;8.412;2023-02-13T11:34:48;24.27;;;14.07;;
8349;SDS011;60699;48.946;8.412;2023-02-13T11:37:17;30.63;;;16.60;;
8349;SDS011;60699;48.946;8.412;2023-02-13T11:39:47;34.08;;;15.15;;
8349;SDS011;60699;48.946;8.412;2023-02-13T11:42:14;34.60;;;17.00;;
8349;SDS011;60699;48.946;8.412;2023-02-13T11:44:42;29.00;;;15.77;;
8349;SDS011;60699;48.946;8.412;2023-02-13T11:47:10;35.03;;;17.55;;
8349;SDS011;60699;48.946;8.412;2023-02-13T11:49:38;33.88;;;17.63;;
8349;SDS011;60699;48.946;8.412;2023-02-13T11:52:11;35.83;;;18.23;;
8349;SDS011;60699;48.946;8.412;2023-02-13T11:54:53;28.02;;;15.98;;
8349;SDS011;60699;48.946;8.412;2023-02-13T11:57:21;29.83;;;14.98;;
8349;SDS011;60699;48.946;8.412;2023-02-13T11:59:49;27.42;;;15.40;;
8349;SDS011;60699;48.946;8.412;2023-02-13T12:02:17;29.58;;;17.27;;
8349;SDS011;60699;48.946;8.412;2023-02-13T12:04:45;27.73;;;17.55;;
8349;SDS011;60699;48.946;8.412;2023-02-13T12:07:14;23.70;;;15.32;;
8349;SDS011;60699;48.946;8.412;2023-02-13T12:09:43;27.35;;;15.80;;
8349;SDS011;60699;48.946;8.412;2023-02-13T12:12:14;29.20;;;16.45;;
8349;SDS011;60699;48.946;8.412;2023-02-13T12:14:43;28.77;;;15.55;;
8349;SDS011;60699;48.946;8.412;2023-02-13T12:17:11;25.95;;;15.60;;
8349;SDS011;60699;48.946;8.412;2023-02-13T12:19:41;23.58;;;14.50;;
8349;SDS011;60699;48.946;8.412;2023-02-13T12:22:14;23.80;;;13.40;;
8349;SDS011;60699;48.946;8.412;2023-02-13T12:24:46;25.52;;;14.75;;
8349;SDS011;60699;48.946;8.412;2023-02-13T12:27:18;24.08;;;14.85;;
8349;SDS011;60699;48.946;8.412;2023-02-13T12:29:54;30.05;;;15.32;;
8349;SDS011;60699;48.946;8.412;2023-02-13T12:32:25;26.20;;;14.38;;
8349;SDS011;60699;48.946;8.412;2023-02-13T12:34:56;27.38;;;14.80;;
8349;SDS011;60699;48.946;8.412;2023-02-13T12:37:33;23.58;;;14.07;;
8349;SDS011;60699;48.946;8.412;2023-02-13T12:40:08;22.23;;;14.73;;
8349;SDS011;60699;48.946;8.412;2023-02-13T12:42:48;28.00;;;13.98;;
8349;SDS011;60699;48.946;8.412;2023-02-13T12:45:21;20.63;;;13.43;;
8349;SDS011;60699;48.946;8.412;2023-02-13T12:47:57;26.83;;;15.00;;
8349;SDS011;60699;48.946;8.412;2023-02-13T12:50:36;24.20;;;14.15;;
8349;SDS011;60699;48.946;8.412;2023-02-13T12:53:10;22.10;;;14.00;;
8349;SDS011;60699;48.946;8.412;2023-02-13T12:55:43;26.52;;;15.20;;
8349;SDS011;60699;48.946;8.412;2023-02-13T12:58:17;23.83;;;14.40;;
8349;SDS011;60699;48.946;8.412;2023-02-13T13:00:51;28.00;;;14.55;;
8349;SDS011;60699;48.946;8.412;2023-02-13T13:03:32;22.55;;;14.13;;
8349;SDS011;60699;48.946;8.412;2023-02-13T13:06:03;26.55;;;15.55;;
8349;SDS011;60699;48.946;8.412;2023-02-13T13:08:38;24.95;;;14.82;;
8349;SDS011;60699;48.946;8.412;2023-02-13T13:11:15;27.45;;;15.40;;
8349;SDS011;60699;48.946;8.412;2023-02-13T13:13:48;25.63;;;17.25;;
8349;SDS011;60699;48.946;8.412;2023-02-13T13:16:19;24.25;;;14.40;;
8349;SDS011;60699;48.946;8.412;2023-02-13T13:18:53;26.92;;;15.07;;
8349;SDS011;60699;48.946;8.412;2023-02-13T13:21:24;30.25;;;16.75;;
8349;SDS011;60699;48.946;8.412;2023-02-13T13:23:57;32.85;;;15.40;;
8349;SDS011;60699;48.946;8.412;2023-02-13T13:26:29;28.25;;;15.20;;
8349;SDS011;60699;48.946;8.412;2023-02-13T13:29:02;25.08;;;14.48;;
8349;SDS011;60699;48.946;8.412;2023-02-13T13:31:30;28.90;;;16.80;;
8349;SDS011;60699;48.946;8.412;2023-02-13T13:34:01;29.40;;;15.18;;
8349;SDS011;60699;48.946;8.412;2023-02-13T13:36:32;25.80;;;15.48;;
8349;SDS011;60699;48.946;8.412;2023-02-13T13:39:02;30.42;;;16.48;;
8349;SDS011;60699;48.946;8.412;2023-02-13T13:41:34;34.83;;;16.10;;
8349;SDS011;60699;48.946;8.412;2023-02-13T13:44:08;28.27;;;15.60;;
8349;SDS011;60699;48.946;8.412;2023-02-13T13:46:45;36.10;;;14.20;;
8349;SDS011;60699;48.946;8.412;2023-02-13T13:49:23;30.63;;;15.55;;
8349;SDS011;60699;48.946;8.412;2023-02-13T13:51:53;29.52;;;15.85;;
8349;SDS011;60699;48.946;8.412;2023-02-13T13:54:34;23.90;;;15.65;;
8349;SDS011;60699;48.946;8.412;2023-02-13T13:57:08;27.42;;;15.05;;
8349;SDS011;60699;48.946;8.412;2023-02-13T13:59:55;28.05;;;15.63;;
8349;SDS011;60699;48.946;8.412;2023-02-13T14:02:30;25.00;;;14.68;;
8349;SDS011;60699;48.946;8.412;2023-02-13T14:05:01;24.00;;;14.82;;
8349;SDS011;60699;48.946;8.412;2023-02-13T14:07:32;28.75;;;15.80;;
8349;SDS011;60699;48.946;8.412;2023-02-13T14:09:59;28.23;;;16.98;;
8349;SDS011;60699;48.946;8.412;2023-02-13T14:12:36;27.90;;;18.05;;
8349;SDS011;60699;48.946;8.412;2023-02-13T14:17:54;26.13;;;15.52;;
8349;SDS011;60699;48.946;8.412;2023-02-13T14:20:25;26.17;;;15.60;;
8349;SDS011;60699;48.946;8.412;2023-02-13T14:22:54;29.58;;;16.77;;
8349;SDS011;60699;48.946;8.412;2023-02-13T14:25:22;26.42;;;15.63;;
8349;SDS011;60699;48.946;8.412;2023-02-13T14:27:54;25.88;;;16.17;;
8349;SDS011;60699;48.946;8.412;2023-02-13T14:30:25;26.40;;;16.30;;
8349;SDS011;60699;48.946;8.412;2023-02-13T14:32:52;29.40;;;14.73;;
8349;SDS011;60699;48.946;8.412;2023-02-13T14:35:21;22.33;;;15.00;;
8349;SDS011;60699;48.946;8.412;2023-02-13T14:37:49;28.38;;;16.95;;
8349;SDS011;60699;48.946;8.412;2023-02-13T14:43:00;23.85;;;15.43;;
8349;SDS011;60699;48.946;8.412;2023-02-13T14:45:29;25.08;;;15.70;;
8349;SDS011;60699;48.946;8.412;2023-02-13T14:47:57;30.17;;;16.63;;
8349;SDS011;60699;48.946;8.412;2023-02-13T14:50:31;30.73;;;16.33;;
8349;SDS011;60699;48.946;8.412;2023-02-13T14:53:01;25.45;;;15.48;;
8349;SDS011;60699;48.946;8.412;2023-02-13T14:55:33;21.05;;;14.10;;
8349;SDS011;60699;48.946;8.412;2023-02-13T14:58:01;28.90;;;14.38;;
8349;SDS011;60699;48.946;8.412;2023-02-13T15:00:32;27.15;;;16.30;;
8349;SDS011;60699;48.946;8.412;2023-02-13T15:03:04;25.95;;;14.90;;
8349;SDS011;60699;48.946;8.412;2023-02-13T15:05:34;31.05;;;16.63;;
8349;SDS011;60699;48.946;8.412;2023-02-13T15:08:03;28.90;;;16.08;;
8349;SDS011;60699;48.946;8.412;2023-02-13T15:10:35;28.75;;;17.45;;
8349;SDS011;60699;48.946;8.412;2023-02-13T15:13:11;26.02;;;14.70;;